Time;durP1;ratioP1;P1;durP2;ratioP2;P2;SDS_P1;SDS_P2;PMS_P1;PMS_P2;Temp;Humidity;BMP_temperature;BMP_pressure;BME280_temperature;BME280_humidity;BME280_pressure;Samples;Min_cycle;Max_cycle;Signal;HPM_P1;HPM_P2
2022/01/25 00:31:18;;;;;;;0.20;0.20;;;4.70;99.90;;;;;;5126231;28;20080;-82
2022/01/25 00:33:51;;;;;;;0.10;0.10;;;3.80;99.90;;;;;;5109392;28;20044;-82
2022/01/25 00:36:20;;;;;;;0.10;0.10;;;3.80;99.90;;;;;;5144939;28;20036;-82
2022/01/25 00:38:47;;;;;;;0.30;0.30;;;4.10;99.90;;;;;;5097024;28;20057;-82
2022/01/25 00:41:29;;;;;;;0.10;0.10;;;3.80;99.90;;;;;;5166274;27;20439;-82
2022/01/25 00:43:58;;;;;;;0.10;0.10;;;4.70;99.90;;;;;;5130414;28;20488;-82
2022/01/25 00:46:24;;;;;;;0.10;0.10;;;3.80;99.90;;;;;;5131479;28;20130;-82
2022/01/25 00:48:55;;;;;;;0.10;0.10;;;4.60;99.90;;;;;;5130681;28;20440;-82
2022/01/25 00:54:09;;;;;;;0.10;0.10;;;3.80;99.90;;;;;;5164680;28;20587;-82
2022/01/25 00:56:45;;;;;;;0.10;0.10;;;3.80;99.90;;;;;;5147856;28;20038;-81
2022/01/25 00:59:16;;;;;;;0.10;0.10;;;3.80;99.90;;;;;;5147716;28;20035;-82
2022/01/25 01:01:44;;;;;;;0.10;0.10;;;3.80;99.90;;;;;;5147648;28;20071;-82
2022/01/25 01:04:11;;;;;;;0.10;0.10;;;3.80;99.90;;;;;;5130866;28;20066;-82
2022/01/25 01:06:42;;;;;;;0.20;0.20;;;3.80;99.90;;;;;;5130830;28;20076;-82
2022/01/25 01:09:10;;;;;;;0.35;0.15;;;4.10;99.90;;;;;;5147981;28;20503;-82
2022/01/25 01:11:42;;;;;;;0.22;0.22;;;3.80;99.90;;;;;;5130636;28;20035;-82
2022/01/25 01:17:18;;;;;;;0.13;0.13;;;3.80;99.90;;;;;;5148221;28;20063;-81
2022/01/25 01:31:00;;;;;;;0.20;0.20;;;3.80;99.90;;;;;;5149529;28;20491;-82
2022/01/25 01:41:32;;;;;;;0.10;0.10;;;3.80;99.90;;;;;;5163317;28;20055;-82
2022/01/25 01:44:01;;;;;;;0.10;0.10;;;4.20;99.90;;;;;;5146446;28;20051;-82
2022/01/25 01:48:58;;;;;;;0.10;0.10;;;3.70;99.90;;;;;;5163822;28;20051;-82
2022/01/25 01:51:33;;;;;;;0.20;0.20;;;3.70;99.90;;;;;;5108447;28;20039;-81
2022/01/25 01:54:12;;;;;;;0.10;0.10;;;3.70;99.90;;;;;;5132641;28;20036;-82
2022/01/25 01:56:39;;;;;;;0.10;0.10;;;3.70;99.90;;;;;;5132871;28;20389;-81
2022/01/25 01:59:14;;;;;;;0.10;0.10;;;3.80;99.90;;;;;;5099141;28;20485;-82
2022/01/25 02:01:43;;;;;;;0.22;0.22;;;3.70;99.90;;;;;;5132847;28;20500;-82
2022/01/25 02:04:11;;;;;;;0.10;0.10;;;3.70;99.90;;;;;;5115803;28;20043;-81
2022/01/25 02:06:38;;;;;;;0.10;0.10;;;3.70;99.90;;;;;;5132610;28;20039;-82
2022/01/25 02:09:06;;;;;;;0.10;0.10;;;3.70;99.90;;;;;;5132808;28;20032;-82
2022/01/25 02:11:33;;;;;;;0.10;0.10;;;3.70;99.90;;;;;;5115887;28;20404;-82
2022/01/25 02:14:05;;;;;;;0.10;0.10;;;3.70;99.90;;;;;;5149144;28;20035;-82
2022/01/25 02:24:37;;;;;;;0.10;0.10;;;3.80;99.90;;;;;;5134836;28;20349;-81
2022/01/25 02:27:05;;;;;;;0.10;0.10;;;3.70;99.90;;;;;;5148854;28;20114;-82
2022/01/25 02:29:32;;;;;;;0.10;0.10;;;3.70;99.90;;;;;;5115608;28;20048;-82
2022/01/25 02:31:59;;;;;;;0.25;0.25;;;3.70;99.90;;;;;;5098492;28;20079;-82
2022/01/25 02:34:26;;;;;;;0.30;0.30;;;3.50;99.90;;;;;;5098485;28;20136;-82
2022/01/25 02:37:05;;;;;;;0.10;0.10;;;3.70;99.90;;;;;;5115461;28;20104;-81
2022/01/25 02:39:33;;;;;;;0.10;0.10;;;3.70;99.90;;;;;;5132238;28;20051;-82
2022/01/25 02:42:00;;;;;;;0.10;0.10;;;3.80;99.90;;;;;;5098047;28;20066;-82
2022/01/25 02:44:29;;;;;;;0.10;0.10;;;3.70;99.90;;;;;;5115241;28;20039;-82
2022/01/25 02:49:33;;;;;;;0.10;0.10;;;3.70;99.90;;;;;;5148874;28;20039;-82
2022/01/25 02:52:03;;;;;;;0.10;0.10;;;4.40;99.90;;;;;;5131669;28;20100;-82
2022/01/25 02:54:30;;;;;;;0.10;0.10;;;3.70;99.90;;;;;;5115160;28;20047;-81
2022/01/25 02:56:57;;;;;;;0.10;0.10;;;3.70;99.90;;;;;;5114627;28;20043;-81
2022/01/25 02:59:24;;;;;;;0.10;0.10;;;3.70;99.90;;;;;;5114523;28;20048;-81
2022/01/25 03:01:51;;;;;;;0.10;0.10;;;4.20;99.90;;;;;;5098494;28;20035;-82
2022/01/25 03:04:19;;;;;;;0.13;0.13;;;4.50;99.90;;;;;;5113279;28;20403;-81
2022/01/25 03:06:47;;;;;;;0.40;0.40;;;3.70;99.90;;;;;;5131292;28;20043;-81
2022/01/25 03:09:14;;;;;;;0.32;0.32;;;3.70;99.90;;;;;;5114459;28;20035;-81
2022/01/25 03:11:46;;;;;;;0.10;0.10;;;3.90;99.90;;;;;;5114650;28;20112;-81
2022/01/25 03:14:13;;;;;;;0.10;0.10;;;3.60;99.90;;;;;;5131624;28;20075;-81
2022/01/25 03:16:45;;;;;;;0.10;0.10;;;3.90;99.90;;;;;;5131278;28;20078;-81
2022/01/25 03:24:57;;;;;;;0.10;0.10;;;3.60;99.90;;;;;;5148370;28;20044;-81
2022/01/25 03:27:24;;;;;;;0.13;0.13;;;3.60;99.90;;;;;;5130706;28;20377;-81
2022/01/25 03:29:51;;;;;;;0.00;0.00;;;3.60;99.90;;;;;;5131596;28;20040;-81
2022/01/25 03:32:17;;;;;;;0.10;0.10;;;3.90;99.90;;;;;;5113807;28;20412;-81
2022/01/25 03:34:44;;;;;;;0.10;0.10;;;3.80;99.90;;;;;;5097475;28;20039;-81
2022/01/25 03:37:11;;;;;;;0.10;0.10;;;3.60;99.90;;;;;;5097053;28;20039;-81
2022/01/25 03:39:37;;;;;;;0.20;0.20;;;4.10;99.90;;;;;;5130676;28;20058;-81
2022/01/25 03:42:08;;;;;;;0.10;0.10;;;3.60;99.90;;;;;;5113876;28;20032;-81
2022/01/25 03:44:35;;;;;;;0.20;0.20;;;3.60;99.90;;;;;;5114888;28;20043;-81
2022/01/25 03:47:07;;;;;;;0.10;0.10;;;3.60;99.90;;;;;;5130372;28;20032;-80
2022/01/25 03:49:52;;;;;;;0.10;0.10;;;3.60;99.90;;;;;;5130559;28;20126;-81
2022/01/25 03:52:29;;;;;;;0.10;0.10;;;3.60;99.90;;;;;;5115847;28;20040;-81
2022/01/25 03:54:56;;;;;;;0.10;0.10;;;3.60;99.90;;;;;;5130824;28;20043;-82
2022/01/25 03:57:22;;;;;;;0.10;0.10;;;3.60;99.90;;;;;;5096730;28;20408;-81
2022/01/25 03:59:49;;;;;;;0.17;0.17;;;4.50;99.90;;;;;;5113247;28;20134;-81
2022/01/25 04:02:16;;;;;;;0.17;0.17;;;3.60;99.90;;;;;;5096416;28;20032;-81
2022/01/25 04:04:43;;;;;;;0.10;0.10;;;3.60;99.90;;;;;;5097022;28;20126;-81
2022/01/25 04:07:12;;;;;;;0.10;0.10;;;3.50;99.90;;;;;;5147026;28;20043;-81
2022/01/25 04:09:39;;;;;;;0.10;0.10;;;3.80;99.90;;;;;;5114352;28;20126;-81
2022/01/25 04:12:07;;;;;;;0.10;0.10;;;3.60;99.90;;;;;;5129943;28;20126;-81
2022/01/25 04:14:34;;;;;;;0.10;0.10;;;3.60;99.90;;;;;;5113050;28;20039;-81
2022/01/25 04:17:07;;;;;;;0.10;0.10;;;3.60;99.90;;;;;;5097147;28;20081;-81
2022/01/25 04:19:42;;;;;;;0.10;0.10;;;3.60;99.90;;;;;;5131351;28;20050;-81
2022/01/25 04:25:05;;;;;;;0.10;0.10;;;4.20;99.90;;;;;;5130526;28;20097;-81
2022/01/25 04:27:33;;;;;;;0.10;0.10;;;3.60;99.90;;;;;;5130476;28;20035;-81
2022/01/25 04:30:01;;;;;;;0.75;0.52;;;4.10;99.90;;;;;;5146957;28;20084;-81
2022/01/25 04:32:43;;;;;;;0.10;0.10;;;3.50;99.90;;;;;;5113387;28;20040;-81
2022/01/25 04:49:18;;;;;;;0.15;0.15;;;3.60;99.90;;;;;;5118618;28;20043;-81
2022/01/25 04:54:48;;;;;;;0.10;0.10;;;3.60;99.90;;;;;;5132330;28;20048;-81
2022/01/25 05:00:07;;;;;;;0.10;0.10;;;3.60;99.90;;;;;;5112994;28;20389;-81
2022/01/25 05:05:09;;;;;;;0.10;0.10;;;3.60;99.90;;;;;;5129660;28;20054;-81
2022/01/25 05:10:20;;;;;;;0.10;0.10;;;3.60;99.90;;;;;;5146612;28;20047;-81
2022/01/25 05:12:54;;;;;;;0.10;0.10;;;3.60;99.90;;;;;;5129871;28;20123;-81
2022/01/25 05:15:58;;;;;;;0.10;0.10;;;3.70;99.90;;;;;;5098034;28;20039;-81
2022/01/25 05:18:24;;;;;;;0.10;0.10;;;3.60;99.90;;;;;;5119453;28;20058;-79
2022/01/25 05:23:36;;;;;;;0.20;0.20;;;3.60;99.90;;;;;;5117692;28;20709;-81
2022/01/25 05:26:03;;;;;;;0.10;0.10;;;3.60;99.90;;;;;;5096181;28;20309;-81
2022/01/25 05:28:29;;;;;;;0.10;0.10;;;3.60;99.90;;;;;;5150156;28;20044;-80
2022/01/25 05:30:56;;;;;;;0.10;0.10;;;3.60;99.90;;;;;;5116649;28;20040;-81
2022/01/25 05:33:23;;;;;;;0.10;0.10;;;3.60;99.90;;;;;;5099653;28;20042;-81
2022/01/25 05:35:49;;;;;;;0.10;0.10;;;3.60;99.90;;;;;;5099782;28;20581;-81
2022/01/25 05:38:16;;;;;;;0.10;0.10;;;3.60;99.90;;;;;;5116149;28;20104;-81
2022/01/25 05:48:29;;;;;;;0.10;0.10;;;3.70;99.90;;;;;;5149733;28;20088;-81
2022/01/25 05:50:56;;;;;;;2.55;0.40;;;3.60;99.90;;;;;;5115968;28;20508;-81
2022/01/25 05:53:23;;;;;;;0.10;0.10;;;3.90;99.90;;;;;;5099027;28;20036;-81
2022/01/25 05:55:51;;;;;;;0.10;0.10;;;3.60;99.90;;;;;;5133231;28;20101;-81
2022/01/25 05:58:18;;;;;;;0.20;0.20;;;3.90;99.90;;;;;;5132421;28;20040;-81
2022/01/25 06:00:45;;;;;;;0.10;0.10;;;3.60;99.90;;;;;;5099231;28;20118;-81
2022/01/25 06:03:12;;;;;;;0.10;0.10;;;3.60;99.90;;;;;;5099517;28;20039;-81
2022/01/25 06:05:38;;;;;;;0.10;0.10;;;4.30;99.90;;;;;;5132390;28;20396;-81
2022/01/25 06:08:05;;;;;;;0.10;0.10;;;3.60;99.90;;;;;;5099281;28;20087;-81
2022/01/25 06:10:33;;;;;;;0.10;0.10;;;3.60;99.90;;;;;;5115362;28;20100;-81
2022/01/25 06:13:00;;;;;;;0.10;0.10;;;3.60;99.90;;;;;;5115975;28;20281;-81
2022/01/25 06:15:27;;;;;;;0.10;0.10;;;3.80;99.90;;;;;;5149426;28;20040;-81
2022/01/25 06:17:54;;;;;;;0.10;0.10;;;3.50;99.90;;;;;;5115984;28;20043;-81
2022/01/25 06:20:21;;;;;;;0.15;0.15;;;3.60;99.90;;;;;;5132179;28;20062;-81
2022/01/25 06:22:48;;;;;;;0.10;0.10;;;3.60;99.90;;;;;;5115480;28;20039;-81
2022/01/25 06:25:15;;;;;;;0.10;0.10;;;3.70;99.90;;;;;;5098894;28;20055;-81
2022/01/25 06:27:43;;;;;;;0.10;0.10;;;3.60;99.90;;;;;;5115421;28;20035;-80
2022/01/25 06:30:17;;;;;;;0.15;0.15;;;3.60;99.90;;;;;;5132203;28;20048;-81
2022/01/25 06:32:45;;;;;;;0.10;0.10;;;3.70;99.90;;;;;;5148761;28;20143;-81
2022/01/25 06:35:13;;;;;;;0.10;0.10;;;3.60;99.90;;;;;;5148853;28;20041;-81
2022/01/25 06:37:40;;;;;;;0.10;0.10;;;3.60;99.90;;;;;;5131804;28;20043;-81
2022/01/25 06:40:08;;;;;;;0.13;0.13;;;3.60;99.90;;;;;;5114960;28;20060;-81
2022/01/25 06:42:36;;;;;;;0.10;0.10;;;3.60;99.90;;;;;;5114814;28;20079;-81
2022/01/25 06:45:19;;;;;;;0.10;0.10;;;3.70;99.90;;;;;;5132339;28;20042;-81
2022/01/25 06:47:47;;;;;;;0.10;0.10;;;3.70;99.90;;;;;;5131645;28;20039;-81
2022/01/25 06:50:16;;;;;;;1.95;0.30;;;3.80;99.90;;;;;;5131695;28;20039;-80
2022/01/25 06:52:43;;;;;;;0.15;0.15;;;3.60;99.90;;;;;;5131525;28;20042;-82
2022/01/25 06:55:14;;;;;;;0.10;0.10;;;3.70;99.90;;;;;;5131847;28;20039;-81
2022/01/25 06:57:41;;;;;;;0.10;0.10;;;3.60;99.90;;;;;;5131054;28;20393;-81
2022/01/25 07:00:15;;;;;;;0.10;0.10;;;3.70;99.90;;;;;;5148824;28;20075;-81
2022/01/25 07:02:41;;;;;;;0.10;0.10;;;3.60;99.90;;;;;;5131076;28;20035;-81
2022/01/25 07:05:09;;;;;;;0.10;0.10;;;3.60;99.90;;;;;;5111047;28;20088;-81
2022/01/25 07:07:37;;;;;;;0.10;0.10;;;3.60;99.90;;;;;;5094635;28;20057;-81
2022/01/25 07:10:05;;;;;;;0.10;0.10;;;3.60;99.90;;;;;;5103981;28;20036;-80
2022/01/25 07:12:32;;;;;;;0.10;0.10;;;3.60;99.90;;;;;;5125406;28;20028;-81
2022/01/25 07:15:02;;;;;;;0.10;0.10;;;3.60;99.90;;;;;;5103448;28;20027;-81
2022/01/25 07:17:29;;;;;;;0.10;0.10;;;3.60;99.90;;;;;;5113685;28;20119;-81
2022/01/25 07:19:56;;;;;;;0.20;0.20;;;3.60;99.90;;;;;;5112501;28;20119;-81
2022/01/25 07:22:23;;;;;;;0.10;0.10;;;3.70;99.90;;;;;;5125718;28;20150;-81
2022/01/25 07:24:49;;;;;;;0.10;0.10;;;3.60;99.90;;;;;;5130488;28;20469;-81
2022/01/25 07:27:16;;;;;;;0.10;0.10;;;3.60;99.90;;;;;;5131219;28;20042;-81
2022/01/25 07:29:43;;;;;;;0.10;0.10;;;3.60;99.90;;;;;;5147470;28;20039;-81
2022/01/25 07:32:09;;;;;;;0.10;0.10;;;3.60;99.90;;;;;;5114368;28;20092;-80
2022/01/25 07:34:36;;;;;;;0.10;0.10;;;3.70;99.90;;;;;;5112746;28;20032;-80
2022/01/25 07:37:03;;;;;;;0.10;0.10;;;3.60;99.90;;;;;;5117973;28;20027;-80
2022/01/25 07:39:30;;;;;;;0.10;0.10;;;3.60;99.90;;;;;;5123162;28;20085;-80
2022/01/25 07:41:58;;;;;;;0.10;0.10;;;3.60;99.90;;;;;;5110306;28;20040;-80
2022/01/25 07:44:30;;;;;;;0.52;0.52;;;3.60;99.90;;;;;;5109270;28;20492;-81
2022/01/25 07:46:58;;;;;;;0.25;0.15;;;3.60;99.90;;;;;;5122895;28;20063;-81
2022/01/25 07:49:25;;;;;;;0.93;0.43;;;3.60;99.90;;;;;;5131211;28;20489;-81
2022/01/25 07:51:52;;;;;;;0.10;0.10;;;3.60;99.90;;;;;;5092774;28;20075;-81
2022/01/25 07:54:19;;;;;;;0.20;0.20;;;3.60;99.90;;;;;;5109869;28;20034;-80
2022/01/25 07:56:47;;;;;;;0.10;0.10;;;3.60;99.90;;;;;;5114554;28;20063;-81
2022/01/25 07:59:14;;;;;;;0.10;0.10;;;3.60;99.90;;;;;;5123107;28;20480;-81
2022/01/25 08:01:41;;;;;;;0.10;0.10;;;3.70;99.90;;;;;;5128806;28;20035;-81
2022/01/25 08:04:09;;;;;;;0.10;0.10;;;3.60;99.90;;;;;;5112333;28;20513;-81
2022/01/25 08:06:37;;;;;;;0.10;0.10;;;3.80;99.90;;;;;;5112533;28;20040;-81
2022/01/25 08:09:05;;;;;;;0.20;0.20;;;3.70;99.90;;;;;;5121191;28;20708;-81
2022/01/25 08:11:32;;;;;;;0.10;0.10;;;3.70;99.90;;;;;;5112953;28;20096;-81
2022/01/25 08:14:12;;;;;;;0.10;0.10;;;3.60;99.90;;;;;;5130157;28;20084;-81
2022/01/25 08:16:45;;;;;;;0.10;0.10;;;3.70;99.90;;;;;;5146267;28;20496;-81
2022/01/25 08:19:13;;;;;;;1.75;0.40;;;3.70;99.90;;;;;;5130329;28;20399;-81
2022/01/25 08:21:41;;;;;;;0.10;0.10;;;3.70;99.90;;;;;;5109679;28;20048;-80
2022/01/25 08:24:10;;;;;;;0.40;0.40;;;3.60;99.90;;;;;;5140717;28;20044;-80
2022/01/25 08:26:37;;;;;;;0.10;0.10;;;4.30;99.90;;;;;;5109306;28;20471;-81
2022/01/25 08:29:05;;;;;;;0.10;0.10;;;3.70;99.90;;;;;;5126504;28;20093;-81
2022/01/25 08:31:32;;;;;;;0.10;0.10;;;4.00;99.90;;;;;;5111652;28;20044;-81
2022/01/25 08:33:59;;;;;;;0.10;0.10;;;3.70;99.90;;;;;;5126246;28;20040;-81
2022/01/25 08:36:27;;;;;;;0.10;0.10;;;4.20;99.90;;;;;;5095245;28;20032;-81
2022/01/25 08:38:54;;;;;;;0.10;0.10;;;3.70;99.90;;;;;;5108677;28;20032;-81
2022/01/25 08:41:21;;;;;;;0.10;0.10;;;3.70;99.90;;;;;;5139464;28;20389;-81
2022/01/25 08:43:49;;;;;;;0.10;0.10;;;3.70;99.90;;;;;;5110857;28;20093;-81
2022/01/25 08:46:16;;;;;;;0.10;0.10;;;3.70;99.90;;;;;;5143069;28;20096;-81
2022/01/25 08:48:45;;;;;;;0.20;0.20;;;4.10;99.90;;;;;;5112474;28;20120;-82
2022/01/25 08:51:13;;;;;;;0.20;0.20;;;4.20;99.90;;;;;;5143993;28;20393;-82
2022/01/25 08:53:40;;;;;;;0.10;0.10;;;3.70;99.90;;;;;;5109415;28;20047;-80
2022/01/25 08:56:08;;;;;;;0.10;0.10;;;3.70;99.90;;;;;;5111646;28;20081;-81
2022/01/25 08:58:35;;;;;;;0.10;0.10;;;4.50;99.90;;;;;;5144493;28;20040;-81
2022/01/25 09:01:03;;;;;;;0.17;0.17;;;3.80;99.90;;;;;;5102421;28;20476;-82
2022/01/25 09:03:30;;;;;;;0.10;0.10;;;3.70;99.90;;;;;;5113101;28;20464;-81
2022/01/25 09:05:57;;;;;;;0.10;0.10;;;3.80;99.90;;;;;;5124481;28;20044;-81
2022/01/25 09:08:26;;;;;;;0.10;0.10;;;3.80;99.90;;;;;;5130486;28;20039;-81
2022/01/25 09:10:58;;;;;;;0.13;0.13;;;4.30;99.90;;;;;;5097983;28;20100;-80
2022/01/25 09:13:26;;;;;;;0.10;0.10;;;3.80;99.90;;;;;;5099910;28;20057;-81
2022/01/25 09:15:52;;;;;;;0.10;0.10;;;3.80;99.90;;;;;;5135800;28;20119;-81
2022/01/25 09:18:21;;;;;;;0.10;0.10;;;3.90;99.90;;;;;;5112231;28;20128;-81
2022/01/25 09:20:48;;;;;;;0.10;0.10;;;4.10;99.90;;;;;;5112378;28;20039;-80
2022/01/25 09:23:17;;;;;;;0.20;0.20;;;3.80;99.90;;;;;;5096371;28;20039;-81
2022/01/25 09:25:47;;;;;;;0.10;0.10;;;3.90;99.90;;;;;;5129502;28;20127;-81
2022/01/25 09:28:14;;;;;;;0.10;0.10;;;3.90;99.90;;;;;;5096178;28;20044;-80
2022/01/25 09:30:43;;;;;;;0.20;0.20;;;3.80;99.90;;;;;;5112134;28;20043;-80
2022/01/25 09:33:09;;;;;;;0.10;0.10;;;3.90;99.90;;;;;;5112124;28;20066;-81
2022/01/25 09:35:37;;;;;;;0.10;0.10;;;3.80;99.90;;;;;;5131452;28;20065;-81
2022/01/25 09:38:04;;;;;;;0.10;0.10;;;4.40;99.90;;;;;;5131753;28;20040;-80
2022/01/25 09:40:31;;;;;;;0.10;0.10;;;3.80;99.90;;;;;;5132027;28;20733;-80
2022/01/25 09:42:59;;;;;;;0.10;0.10;;;4.10;99.90;;;;;;5132246;28;20048;-81
2022/01/25 09:45:26;;;;;;;0.10;0.10;;;3.90;99.90;;;;;;5116035;28;20059;-81
2022/01/25 09:47:53;;;;;;;0.10;0.10;;;3.90;99.90;;;;;;5131736;28;20412;-81
2022/01/25 09:50:21;;;;;;;0.10;0.10;;;4.20;99.90;;;;;;5115784;28;20122;-80
2022/01/25 09:52:48;;;;;;;0.10;0.10;;;3.80;99.90;;;;;;5115448;28;20039;-82
2022/01/25 09:55:21;;;;;;;0.10;0.10;;;4.10;99.90;;;;;;5132031;28;20547;-81
2022/01/25 09:57:49;;;;;;;0.10;0.10;;;3.80;99.90;;;;;;5119439;28;20036;-81
2022/01/25 10:00:19;;;;;;;0.10;0.10;;;3.90;99.90;;;;;;5112108;28;20110;-82
2022/01/25 10:03:18;;;;;;;0.10;0.10;;;3.90;99.90;;;;;;5128266;28;20140;-80
2022/01/25 10:05:47;;;;;;;0.10;0.10;;;3.90;99.90;;;;;;5112084;28;20039;-80
2022/01/25 10:08:24;;;;;;;0.10;0.10;;;3.90;99.90;;;;;;5148133;28;20032;-82
2022/01/25 10:10:58;;;;;;;0.10;0.10;;;3.90;99.90;;;;;;5126241;28;20040;-81
2022/01/25 10:13:39;;;;;;;0.10;0.10;;;3.90;99.90;;;;;;5129956;28;20050;-81
2022/01/25 10:16:17;;;;;;;0.10;0.10;;;3.90;99.90;;;;;;5131849;28;20038;-80
2022/01/25 10:18:56;;;;;;;0.10;0.10;;;3.90;99.90;;;;;;5131750;28;20054;-81
2022/01/25 10:21:35;;;;;;;0.10;0.10;;;3.90;99.90;;;;;;5132348;28;20416;-81
2022/01/25 10:24:13;;;;;;;0.10;0.10;;;3.90;99.90;;;;;;5131178;28;20043;-81
2022/01/25 10:26:47;;;;;;;0.10;0.10;;;3.90;99.90;;;;;;5131460;28;20056;-81
2022/01/25 10:29:20;;;;;;;0.10;0.10;;;3.90;99.90;;;;;;5145362;28;20066;-81
2022/01/25 10:31:59;;;;;;;0.10;0.10;;;4.00;99.90;;;;;;5111011;28;20048;-81
2022/01/25 10:34:40;;;;;;;0.10;0.10;;;3.90;99.90;;;;;;5141619;28;20044;-81
2022/01/25 10:37:09;;;;;;;0.10;0.10;;;4.40;99.90;;;;;;5119526;28;20024;-81
2022/01/25 10:39:40;;;;;;;0.10;0.10;;;3.90;99.90;;;;;;5120763;28;20051;-81
2022/01/25 10:42:23;;;;;;;0.10;0.10;;;3.90;99.90;;;;;;5145341;28;20043;-82
2022/01/25 10:44:55;;;;;;;0.38;0.38;;;3.90;99.90;;;;;;5131068;28;20032;-81
2022/01/25 10:47:42;;;;;;;0.10;0.10;;;3.90;99.90;;;;;;5131361;28;20556;-82
2022/01/25 10:50:15;;;;;;;0.10;0.10;;;3.90;99.90;;;;;;5120005;28;20059;-84
2022/01/25 10:52:43;;;;;;;0.10;0.10;;;3.90;99.90;;;;;;5131360;28;20035;-87
2022/01/25 10:55:10;;;;;;;0.10;0.10;;;3.90;99.90;;;;;;5132191;28;20043;-87
2022/01/25 10:57:37;;;;;;;0.10;0.10;;;3.90;99.90;;;;;;5098867;28;20488;-86
2022/01/25 11:00:09;;;;;;;0.10;0.10;;;4.60;99.90;;;;;;5111157;28;20047;-88
2022/01/25 11:02:56;;;;;;;0.10;0.10;;;3.90;99.90;;;;;;5112317;28;20040;-86
2022/01/25 11:05:23;;;;;;;0.10;0.10;;;4.00;99.90;;;;;;5108523;28;20515;-87
2022/01/25 11:07:50;;;;;;;0.10;0.10;;;3.90;99.90;;;;;;5090717;28;20047;-88
2022/01/25 11:10:20;;;;;;;0.10;0.10;;;3.90;99.90;;;;;;5106613;28;20382;-88
2022/01/25 11:13:01;;;;;;;0.10;0.10;;;3.90;99.90;;;;;;5111733;28;20032;-86
2022/01/25 11:15:28;;;;;;;0.10;0.10;;;3.90;99.90;;;;;;5115958;28;20115;-87
2022/01/25 11:17:55;;;;;;;0.10;0.10;;;4.70;99.90;;;;;;5145511;28;20117;-86
2022/01/25 11:20:21;;;;;;;0.20;0.20;;;4.10;99.90;;;;;;5111854;28;20054;-86
2022/01/25 11:22:49;;;;;;;0.10;0.10;;;3.90;99.90;;;;;;5089646;28;20044;-86
2022/01/25 11:25:18;;;;;;;0.38;0.38;;;3.90;99.90;;;;;;5094440;28;20788;-86
2022/01/25 11:27:49;;;;;;;0.57;0.57;;;4.10;99.90;;;;;;5111459;28;20043;-88
2022/01/25 11:30:19;;;;;;;0.30;0.30;;;4.90;99.90;;;;;;5128789;28;20548;-88
2022/01/25 11:32:49;;;;;;;0.10;0.10;;;4.50;99.90;;;;;;5128605;28;20067;-86
2022/01/25 11:35:23;;;;;;;0.10;0.10;;;3.90;99.90;;;;;;5126847;28;20075;-86
2022/01/25 11:37:51;;;;;;;0.22;0.22;;;4.20;99.90;;;;;;5110226;28;20048;-86
2022/01/25 11:40:22;;;;;;;0.15;0.15;;;4.80;99.90;;;;;;5115672;28;20131;-88
2022/01/25 11:42:54;;;;;;;0.10;0.10;;;3.90;99.90;;;;;;5132050;28;20043;-86
2022/01/25 11:45:23;;;;;;;0.60;0.40;;;3.90;99.90;;;;;;5130807;28;20047;-86
2022/01/25 11:47:54;;;;;;;0.20;0.20;;;3.90;99.90;;;;;;5130638;28;20043;-86
2022/01/25 11:50:29;;;;;;;0.10;0.10;;;4.00;99.90;;;;;;5104228;28;20412;-85
2022/01/25 11:53:05;;;;;;;0.10;0.10;;;4.00;99.90;;;;;;5109756;28;20032;-90
2022/01/25 11:55:43;;;;;;;0.10;0.10;;;4.30;99.90;;;;;;5128221;28;20038;-87
2022/01/25 12:01:38;;;;;;;0.10;0.10;;;4.00;99.90;;;;;;5126586;28;20043;-86
2022/01/25 12:04:07;;;;;;;0.10;0.10;;;4.30;99.90;;;;;;5093118;28;20048;-87
2022/01/25 12:06:43;;;;;;;0.10;0.10;;;4.00;99.90;;;;;;5109921;28;20040;-87
2022/01/25 12:09:41;;;;;;;0.10;0.10;;;4.00;99.90;;;;;;5130190;28;20039;-87
2022/01/25 12:12:10;;;;;;;0.08;0.08;;;4.10;99.90;;;;;;5133154;28;20507;-87
2022/01/25 12:14:41;;;;;;;0.10;0.10;;;4.00;99.90;;;;;;5109760;28;20123;-87
2022/01/25 12:17:14;;;;;;;0.10;0.10;;;4.10;99.90;;;;;;5110020;28;20089;-87
2022/01/25 12:19:56;;;;;;;0.10;0.10;;;4.00;99.90;;;;;;5120441;28;20049;-87
2022/01/25 12:22:26;;;;;;;0.10;0.10;;;4.00;99.90;;;;;;5147938;28;20130;-87
2022/01/25 12:25:12;;;;;;;0.10;0.10;;;4.80;99.90;;;;;;5130391;28;20399;-86
2022/01/25 12:28:07;;;;;;;0.10;0.10;;;4.00;99.90;;;;;;5130686;28;20047;-87
2022/01/25 12:30:40;;;;;;;0.10;0.10;;;4.00;99.90;;;;;;5130456;28;20043;-86
2022/01/25 12:33:24;;;;;;;0.10;0.10;;;4.30;99.90;;;;;;5146892;28;20074;-86
2022/01/25 12:35:54;;;;;;;0.10;0.10;;;4.00;99.90;;;;;;5129966;28;20131;-86
2022/01/25 12:38:23;;;;;;;0.10;0.10;;;4.00;99.90;;;;;;5130281;28;20047;-87
2022/01/25 12:41:06;;;;;;;0.10;0.10;;;4.00;99.90;;;;;;5129806;28;20051;-87
2022/01/25 12:43:50;;;;;;;0.10;0.10;;;4.00;99.90;;;;;;5114733;28;20101;-86
2022/01/25 12:46:19;;;;;;;0.10;0.10;;;3.90;99.90;;;;;;5110007;28;20040;-86
2022/01/25 12:48:55;;;;;;;0.20;0.20;;;4.00;99.90;;;;;;5109832;28;20094;-87
2022/01/25 12:51:31;;;;;;;0.10;0.10;;;4.00;99.90;;;;;;5109962;28;20097;-85
2022/01/25 12:54:01;;;;;;;0.10;0.10;;;4.00;99.90;;;;;;5109510;28;20070;-87
2022/01/25 12:56:34;;;;;;;0.40;0.40;;;4.00;99.90;;;;;;5109570;28;20036;-87
2022/01/25 12:59:07;;;;;;;0.10;0.10;;;4.00;99.90;;;;;;5118077;28;20096;-86
2022/01/25 13:01:40;;;;;;;0.10;0.10;;;4.00;99.90;;;;;;5123987;28;20130;-87
2022/01/25 13:04:09;;;;;;;0.10;0.10;;;4.30;99.90;;;;;;5098206;28;20062;-86
2022/01/25 13:06:43;;;;;;;0.10;0.10;;;4.10;99.90;;;;;;5108385;28;20043;-87
2022/01/25 13:09:19;;;;;;;0.70;0.63;;;4.10;99.90;;;;;;5139422;28;20050;-85
2022/01/25 13:17:25;;;;;;;0.10;0.10;;;4.00;99.90;;;;;;5126041;28;20043;-85
2022/01/25 13:20:00;;;;;;;0.10;0.10;;;4.00;99.90;;;;;;5112627;28;20052;-87
2022/01/25 13:22:33;;;;;;;0.10;0.10;;;4.30;99.90;;;;;;5126402;28;20408;-86
2022/01/25 13:25:33;;;;;;;0.10;0.10;;;4.00;99.90;;;;;;5141200;28;20057;-86
2022/01/25 13:28:12;;;;;;;0.10;0.10;;;4.00;99.90;;;;;;5118147;28;20240;-86
2022/01/25 13:30:44;;;;;;;0.10;0.10;;;4.00;99.90;;;;;;5116314;28;20054;-86
2022/01/25 13:33:19;;;;;;;0.10;0.10;;;4.00;99.90;;;;;;5113656;28;20043;-87
2022/01/25 13:35:56;;;;;;;0.10;0.10;;;4.00;99.90;;;;;;5113672;28;20042;-87
2022/01/25 13:38:26;;;;;;;0.10;0.10;;;4.00;99.90;;;;;;5126200;28;20040;-86
2022/01/25 13:46:43;;;;;;;0.10;0.10;;;4.00;99.90;;;;;;5140315;28;20043;-86
2022/01/25 13:49:12;;;;;;;0.10;0.10;;;4.00;99.90;;;;;;5113965;28;20047;-85
2022/01/25 13:51:53;;;;;;;1.80;0.80;;;4.00;99.90;;;;;;5141186;28;20523;-87
2022/01/25 13:54:24;;;;;;;0.20;0.20;;;4.00;99.90;;;;;;5121523;28;20036;-87
2022/01/25 13:56:51;;;;;;;0.10;0.10;;;4.30;99.90;;;;;;5112692;28;20040;-85
2022/01/25 13:59:21;;;;;;;0.10;0.10;;;4.40;99.90;;;;;;5109968;28;20100;-86
2022/01/25 14:01:48;;;;;;;0.10;0.10;;;4.30;99.90;;;;;;5100808;28;20130;-87
2022/01/25 14:04:18;;;;;;;0.20;0.20;;;4.00;99.90;;;;;;5133397;28;20919;-87
2022/01/25 14:06:54;;;;;;;0.10;0.10;;;4.00;99.90;;;;;;5150224;28;20043;-86
2022/01/25 14:09:32;;;;;;;0.10;0.10;;;4.40;99.90;;;;;;5116047;28;20043;-86
2022/01/25 14:25:37;;;;;;;0.10;0.10;;;3.90;99.90;;;;;;5133374;28;20131;-85
2022/01/25 14:28:17;;;;;;;0.20;0.20;;;3.90;99.90;;;;;;5130747;28;20047;-85
2022/01/25 14:30:50;;;;;;;0.20;0.20;;;3.90;99.90;;;;;;5132231;28;20055;-86
2022/01/25 14:33:47;;;;;;;0.10;0.10;;;3.90;99.90;;;;;;5131642;28;20496;-85
2022/01/25 14:36:15;;;;;;;0.10;0.10;;;3.90;99.90;;;;;;5131678;28;20028;-85
2022/01/25 14:38:43;;;;;;;0.10;0.10;;;4.00;99.90;;;;;;5098497;28;20040;-85
2022/01/25 14:41:12;;;;;;;0.10;0.10;;;3.90;99.90;;;;;;5148353;28;20059;-86
2022/01/25 14:43:46;;;;;;;0.10;0.10;;;3.90;99.90;;;;;;5131043;28;20044;-87
2022/01/25 14:46:18;;;;;;;0.10;0.10;;;4.00;99.90;;;;;;5131861;28;20079;-85
2022/01/25 14:48:55;;;;;;;0.10;0.10;;;3.90;99.90;;;;;;5127296;28;20036;-85
2022/01/25 14:51:22;;;;;;;0.30;0.30;;;4.70;99.90;;;;;;5117767;28;20042;-87
2022/01/25 14:53:53;;;;;;;0.10;0.10;;;3.90;99.90;;;;;;5109243;28;20036;-86
2022/01/25 14:56:20;;;;;;;0.10;0.10;;;4.00;99.90;;;;;;5126211;28;20220;-85
2022/01/25 15:01:23;;;;;;;0.10;0.10;;;3.90;99.90;;;;;;5113067;28;20043;-86
2022/01/25 15:03:51;;;;;;;0.05;0.05;;;4.20;99.90;;;;;;5078536;28;20040;-85
2022/01/25 15:06:19;;;;;;;0.10;0.10;;;4.20;99.90;;;;;;5095489;28;20516;-87
2022/01/25 15:08:54;;;;;;;0.25;0.25;;;3.90;99.90;;;;;;5095196;28;20039;-86
2022/01/25 15:11:23;;;;;;;0.10;0.10;;;3.90;99.90;;;;;;5111265;28;20676;-86
2022/01/25 15:13:58;;;;;;;0.10;0.10;;;3.90;99.90;;;;;;5077870;28;20431;-87
2022/01/25 15:16:25;;;;;;;0.20;0.20;;;3.90;99.90;;;;;;5080033;28;20039;-86
2022/01/25 15:18:52;;;;;;;0.10;0.10;;;3.90;99.90;;;;;;5094883;28;20092;-87
2022/01/25 15:21:19;;;;;;;0.10;0.10;;;3.90;99.90;;;;;;5114927;28;20047;-87
2022/01/25 15:23:48;;;;;;;0.10;0.10;;;3.80;99.90;;;;;;5098742;28;20406;-87
2022/01/25 15:26:19;;;;;;;0.10;0.10;;;4.10;99.90;;;;;;5115344;28;20051;-86
2022/01/25 15:28:51;;;;;;;0.10;0.10;;;3.80;99.90;;;;;;5131039;28;20070;-86
2022/01/25 15:31:20;;;;;;;0.10;0.10;;;3.80;99.90;;;;;;5114461;28;20042;-86
2022/01/25 15:33:48;;;;;;;0.10;0.10;;;3.80;99.90;;;;;;5110979;28;20042;-85
2022/01/25 15:36:17;;;;;;;0.10;0.10;;;4.10;99.90;;;;;;5094111;28;20032;-84
2022/01/25 15:38:46;;;;;;;0.10;0.10;;;3.80;99.90;;;;;;5135958;28;20124;-84